sensor_id;sensor_type;location;lat;lon;timestamp;P1;durP1;ratioP1;P2;durP2;ratioP2
27622;SDS011;15041;45.334;5.622;2024-03-08T00:01:25;6.50;;;5.30;;
27622;SDS011;15041;45.334;5.622;2024-03-08T00:03:53;7.43;;;5.67;;
27622;SDS011;15041;45.334;5.622;2024-03-08T00:06:20;12.27;;;5.73;;
27622;SDS011;15041;45.334;5.622;2024-03-08T00:08:47;13.50;;;6.80;;
27622;SDS011;15041;45.334;5.622;2024-03-08T00:11:14;10.40;;;6.83;;
27622;SDS011;15041;45.334;5.622;2024-03-08T00:13:41;7.03;;;4.90;;
27622;SDS011;15041;45.334;5.622;2024-03-08T00:16:10;4.43;;;3.50;;
27622;SDS011;15041;45.334;5.622;2024-03-08T00:18:39;4.03;;;3.13;;
27622;SDS011;15041;45.334;5.622;2024-03-08T00:21:06;7.10;;;4.93;;
27622;SDS011;15041;45.334;5.622;2024-03-08T00:23:34;5.30;;;4.47;;
27622;SDS011;15041;45.334;5.622;2024-03-08T00:26:02;6.20;;;4.07;;
27622;SDS011;15041;45.334;5.622;2024-03-08T00:28:29;6.87;;;4.60;;
27622;SDS011;15041;45.334;5.622;2024-03-08T00:30:57;5.97;;;4.37;;
27622;SDS011;15041;45.334;5.622;2024-03-08T00:33:24;8.03;;;3.97;;
27622;SDS011;15041;45.334;5.622;2024-03-08T00:35:54;5.87;;;4.20;;
27622;SDS011;15041;45.334;5.622;2024-03-08T00:38:21;5.67;;;4.00;;
27622;SDS011;15041;45.334;5.622;2024-03-08T00:40:48;5.33;;;4.03;;
27622;SDS011;15041;45.334;5.622;2024-03-08T00:43:15;5.97;;;3.47;;
27622;SDS011;15041;45.334;5.622;2024-03-08T00:45:42;5.00;;;3.30;;
27622;SDS011;15041;45.334;5.622;2024-03-08T00:48:09;5.80;;;3.17;;
27622;SDS011;15041;45.334;5.622;2024-03-08T00:50:37;4.77;;;3.60;;
27622;SDS011;15041;45.334;5.622;2024-03-08T00:53:05;4.60;;;3.77;;
27622;SDS011;15041;45.334;5.622;2024-03-08T00:55:33;6.23;;;4.27;;
27622;SDS011;15041;45.334;5.622;2024-03-08T00:58:00;5.77;;;4.53;;
27622;SDS011;15041;45.334;5.622;2024-03-08T01:00:27;4.47;;;4.07;;
27622;SDS011;15041;45.334;5.622;2024-03-08T01:02:54;10.57;;;5.80;;
27622;SDS011;15041;45.334;5.622;2024-03-08T01:05:22;5.23;;;4.73;;
27622;SDS011;15041;45.334;5.622;2024-03-08T01:07:50;4.87;;;3.70;;
27622;SDS011;15041;45.334;5.622;2024-03-08T01:10:18;5.10;;;4.43;;
27622;SDS011;15041;45.334;5.622;2024-03-08T01:12:45;14.30;;;8.00;;
27622;SDS011;15041;45.334;5.622;2024-03-08T01:15:13;13.07;;;9.60;;
27622;SDS011;15041;45.334;5.622;2024-03-08T01:17:40;21.50;;;15.33;;
27622;SDS011;15041;45.334;5.622;2024-03-08T01:23:05;5.40;;;4.00;;
27622;SDS011;15041;45.334;5.622;2024-03-08T01:25:34;5.40;;;4.90;;
27622;SDS011;15041;45.334;5.622;2024-03-08T01:28:01;4.07;;;3.67;;
27622;SDS011;15041;45.334;5.622;2024-03-08T01:30:28;4.97;;;4.20;;
27622;SDS011;15041;45.334;5.622;2024-03-08T01:33:01;4.50;;;4.00;;
27622;SDS011;15041;45.334;5.622;2024-03-08T01:35:28;4.47;;;3.97;;
27622;SDS011;15041;45.334;5.622;2024-03-08T01:37:56;4.30;;;3.80;;
27622;SDS011;15041;45.334;5.622;2024-03-08T01:40:23;6.87;;;3.83;;
27622;SDS011;15041;45.334;5.622;2024-03-08T01:42:51;3.97;;;3.40;;
27622;SDS011;15041;45.334;5.622;2024-03-08T01:45:19;4.00;;;3.20;;
27622;SDS011;15041;45.334;5.622;2024-03-08T01:47:46;4.23;;;3.83;;
27622;SDS011;15041;45.334;5.622;2024-03-08T01:50:14;4.27;;;3.70;;
27622;SDS011;15041;45.334;5.622;2024-03-08T01:52:42;5.40;;;3.80;;
27622;SDS011;15041;45.334;5.622;2024-03-08T01:55:10;5.37;;;4.17;;
27622;SDS011;15041;45.334;5.622;2024-03-08T01:57:42;7.63;;;4.77;;
27622;SDS011;15041;45.334;5.622;2024-03-08T02:00:11;6.43;;;4.63;;
27622;SDS011;15041;45.334;5.622;2024-03-08T02:02:40;4.17;;;3.77;;
27622;SDS011;15041;45.334;5.622;2024-03-08T02:05:09;3.77;;;3.40;;
27622;SDS011;15041;45.334;5.622;2024-03-08T02:07:36;4.67;;;3.40;;
27622;SDS011;15041;45.334;5.622;2024-03-08T02:10:04;4.47;;;3.83;;
27622;SDS011;15041;45.334;5.622;2024-03-08T02:12:32;5.27;;;4.07;;
27622;SDS011;15041;45.334;5.622;2024-03-08T02:15:00;4.43;;;3.60;;
27622;SDS011;15041;45.334;5.622;2024-03-08T02:17:28;5.97;;;3.60;;
27622;SDS011;15041;45.334;5.622;2024-03-08T02:19:55;8.70;;;3.13;;
27622;SDS011;15041;45.334;5.622;2024-03-08T02:22:24;3.50;;;3.20;;
27622;SDS011;15041;45.334;5.622;2024-03-08T02:24:52;4.13;;;3.73;;
27622;SDS011;15041;45.334;5.622;2024-03-08T02:27:23;3.67;;;3.37;;
27622;SDS011;15041;45.334;5.622;2024-03-08T02:29:50;5.47;;;3.13;;
27622;SDS011;15041;45.334;5.622;2024-03-08T02:32:21;3.77;;;3.23;;
27622;SDS011;15041;45.334;5.622;2024-03-08T02:34:48;4.17;;;3.43;;
27622;SDS011;15041;45.334;5.622;2024-03-08T02:37:15;4.03;;;3.40;;
27622;SDS011;15041;45.334;5.622;2024-03-08T02:39:44;4.60;;;3.13;;
27622;SDS011;15041;45.334;5.622;2024-03-08T02:42:11;3.23;;;3.03;;
27622;SDS011;15041;45.334;5.622;2024-03-08T02:44:42;4.87;;;4.37;;
27622;SDS011;15041;45.334;5.622;2024-03-08T02:47:09;8.57;;;4.90;;
27622;SDS011;15041;45.334;5.622;2024-03-08T02:49:36;9.10;;;4.17;;
27622;SDS011;15041;45.334;5.622;2024-03-08T02:52:04;4.57;;;4.17;;
27622;SDS011;15041;45.334;5.622;2024-03-08T02:54:32;3.60;;;3.30;;
27622;SDS011;15041;45.334;5.622;2024-03-08T02:57:01;4.50;;;4.10;;
27622;SDS011;15041;45.334;5.622;2024-03-08T02:59:29;3.77;;;3.47;;
27622;SDS011;15041;45.334;5.622;2024-03-08T03:01:56;5.13;;;3.87;;
27622;SDS011;15041;45.334;5.622;2024-03-08T03:04:24;4.23;;;3.83;;
27622;SDS011;15041;45.334;5.622;2024-03-08T03:06:51;4.03;;;3.63;;
27622;SDS011;15041;45.334;5.622;2024-03-08T03:09:18;4.37;;;3.97;;
27622;SDS011;15041;45.334;5.622;2024-03-08T03:11:49;4.20;;;3.80;;
27622;SDS011;15041;45.334;5.622;2024-03-08T03:14:17;6.63;;;4.30;;
27622;SDS011;15041;45.334;5.622;2024-03-08T03:16:45;4.93;;;4.30;;
27622;SDS011;15041;45.334;5.622;2024-03-08T03:19:12;5.27;;;4.40;;
27622;SDS011;15041;45.334;5.622;2024-03-08T03:21:40;4.23;;;3.83;;
27622;SDS011;15041;45.334;5.622;2024-03-08T03:24:08;5.97;;;5.00;;
27622;SDS011;15041;45.334;5.622;2024-03-08T03:26:35;5.57;;;5.00;;
27622;SDS011;15041;45.334;5.622;2024-03-08T03:29:05;4.30;;;3.90;;
27622;SDS011;15041;45.334;5.622;2024-03-08T03:31:35;5.23;;;4.73;;
27622;SDS011;15041;45.334;5.622;2024-03-08T03:34:02;5.50;;;4.27;;
27622;SDS011;15041;45.334;5.622;2024-03-08T03:36:30;7.27;;;5.23;;
27622;SDS011;15041;45.334;5.622;2024-03-08T03:38:58;5.23;;;4.80;;
27622;SDS011;15041;45.334;5.622;2024-03-08T03:41:35;5.53;;;4.67;;
27622;SDS011;15041;45.334;5.622;2024-03-08T03:44:04;5.40;;;4.90;;
27622;SDS011;15041;45.334;5.622;2024-03-08T03:46:32;5.17;;;4.77;;
27622;SDS011;15041;45.334;5.622;2024-03-08T03:49:00;5.30;;;4.80;;
27622;SDS011;15041;45.334;5.622;2024-03-08T03:51:29;5.13;;;4.63;;
27622;SDS011;15041;45.334;5.622;2024-03-08T03:53:56;6.63;;;5.03;;
27622;SDS011;15041;45.334;5.622;2024-03-08T03:56:25;4.93;;;4.53;;
27622;SDS011;15041;45.334;5.622;2024-03-08T03:58:52;7.07;;;4.63;;
27622;SDS011;15041;45.334;5.622;2024-03-08T04:01:20;7.20;;;4.20;;
27622;SDS011;15041;45.334;5.622;2024-03-08T04:03:47;4.00;;;3.70;;
27622;SDS011;15041;45.334;5.622;2024-03-08T04:06:15;5.80;;;3.97;;
27622;SDS011;15041;45.334;5.622;2024-03-08T04:08:42;5.87;;;5.27;;
27622;SDS011;15041;45.334;5.622;2024-03-08T04:11:09;8.73;;;4.50;;
27622;SDS011;15041;45.334;5.622;2024-03-08T04:13:37;5.40;;;4.60;;
27622;SDS011;15041;45.334;5.622;2024-03-08T04:16:04;4.30;;;3.90;;
27622;SDS011;15041;45.334;5.622;2024-03-08T04:18:33;4.60;;;4.20;;
27622;SDS011;15041;45.334;5.622;2024-03-08T04:21:03;5.40;;;4.90;;
27622;SDS011;15041;45.334;5.622;2024-03-08T04:23:34;6.77;;;5.13;;
27622;SDS011;15041;45.334;5.622;2024-03-08T04:26:02;4.27;;;3.87;;
27622;SDS011;15041;45.334;5.622;2024-03-08T04:28:29;4.40;;;4.00;;
27622;SDS011;15041;45.334;5.622;2024-03-08T04:30:57;4.17;;;3.77;;
27622;SDS011;15041;45.334;5.622;2024-03-08T04:33:26;5.27;;;4.70;;
27622;SDS011;15041;45.334;5.622;2024-03-08T04:35:53;5.57;;;4.57;;
27622;SDS011;15041;45.334;5.622;2024-03-08T04:38:20;7.33;;;4.73;;
27622;SDS011;15041;45.334;5.622;2024-03-08T04:40:49;9.47;;;5.00;;
27622;SDS011;15041;45.334;5.622;2024-03-08T04:43:16;7.50;;;6.27;;
27622;SDS011;15041;45.334;5.622;2024-03-08T04:45:46;8.13;;;4.83;;
27622;SDS011;15041;45.334;5.622;2024-03-08T04:48:13;8.10;;;4.47;;
27622;SDS011;15041;45.334;5.622;2024-03-08T04:50:41;4.93;;;4.43;;
27622;SDS011;15041;45.334;5.622;2024-03-08T04:53:10;6.07;;;5.00;;
27622;SDS011;15041;45.334;5.622;2024-03-08T04:55:37;6.87;;;5.20;;
27622;SDS011;15041;45.334;5.622;2024-03-08T04:58:05;5.50;;;5.00;;
27622;SDS011;15041;45.334;5.622;2024-03-08T05:00:33;6.37;;;4.30;;
27622;SDS011;15041;45.334;5.622;2024-03-08T05:03:00;4.13;;;3.53;;
27622;SDS011;15041;45.334;5.622;2024-03-08T05:05:28;6.03;;;3.70;;
27622;SDS011;15041;45.334;5.622;2024-03-08T05:07:55;5.20;;;4.60;;
27622;SDS011;15041;45.334;5.622;2024-03-08T05:10:23;8.30;;;5.20;;
27622;SDS011;15041;45.334;5.622;2024-03-08T05:12:50;5.20;;;4.70;;
27622;SDS011;15041;45.334;5.622;2024-03-08T05:15:19;6.03;;;4.70;;
27622;SDS011;15041;45.334;5.622;2024-03-08T05:17:47;6.10;;;4.40;;
27622;SDS011;15041;45.334;5.622;2024-03-08T05:20:15;5.70;;;4.50;;
27622;SDS011;15041;45.334;5.622;2024-03-08T05:22:42;4.27;;;3.97;;
27622;SDS011;15041;45.334;5.622;2024-03-08T05:25:10;5.90;;;4.93;;
27622;SDS011;15041;45.334;5.622;2024-03-08T05:27:37;5.77;;;4.77;;
27622;SDS011;15041;45.334;5.622;2024-03-08T05:30:05;5.33;;;4.83;;
27622;SDS011;15041;45.334;5.622;2024-03-08T05:32:34;5.90;;;4.33;;
27622;SDS011;15041;45.334;5.622;2024-03-08T05:35:01;4.50;;;4.10;;
27622;SDS011;15041;45.334;5.622;2024-03-08T05:37:32;4.77;;;4.20;;
27622;SDS011;15041;45.334;5.622;2024-03-08T05:39:59;7.40;;;4.97;;
27622;SDS011;15041;45.334;5.622;2024-03-08T05:42:26;7.93;;;4.03;;
27622;SDS011;15041;45.334;5.622;2024-03-08T05:44:54;5.93;;;5.40;;
27622;SDS011;15041;45.334;5.622;2024-03-08T05:47:24;8.87;;;4.90;;
27622;SDS011;15041;45.334;5.622;2024-03-08T05:49:52;6.53;;;5.03;;
27622;SDS011;15041;45.334;5.622;2024-03-08T05:52:20;5.73;;;4.53;;
27622;SDS011;15041;45.334;5.622;2024-03-08T05:54:47;10.23;;;5.17;;
27622;SDS011;15041;45.334;5.622;2024-03-08T05:57:14;8.33;;;5.90;;
27622;SDS011;15041;45.334;5.622;2024-03-08T05:59:42;5.10;;;4.60;;
27622;SDS011;15041;45.334;5.622;2024-03-08T06:02:09;7.43;;;5.63;;
27622;SDS011;15041;45.334;5.622;2024-03-08T06:04:36;6.03;;;4.97;;
27622;SDS011;15041;45.334;5.622;2024-03-08T06:07:07;7.17;;;5.67;;
27622;SDS011;15041;45.334;5.622;2024-03-08T06:09:37;8.97;;;5.97;;
27622;SDS011;15041;45.334;5.622;2024-03-08T06:12:05;9.17;;;5.57;;
27622;SDS011;15041;45.334;5.622;2024-03-08T06:14:35;11.43;;;7.07;;
27622;SDS011;15041;45.334;5.622;2024-03-08T06:17:02;8.73;;;5.80;;
27622;SDS011;15041;45.334;5.622;2024-03-08T06:19:31;6.17;;;4.83;;
27622;SDS011;15041;45.334;5.622;2024-03-08T06:21:58;6.70;;;4.87;;
27622;SDS011;15041;45.334;5.622;2024-03-08T06:24:29;8.20;;;6.07;;
27622;SDS011;15041;45.334;5.622;2024-03-08T06:26:56;23.97;;;16.23;;
27622;SDS011;15041;45.334;5.622;2024-03-08T06:29:23;24.00;;;12.37;;
27622;SDS011;15041;45.334;5.622;2024-03-08T06:31:51;18.93;;;11.27;;
27622;SDS011;15041;45.334;5.622;2024-03-08T06:34:18;14.17;;;8.70;;
27622;SDS011;15041;45.334;5.622;2024-03-08T06:36:46;14.10;;;9.90;;
27622;SDS011;15041;45.334;5.622;2024-03-08T06:39:13;14.90;;;7.33;;
27622;SDS011;15041;45.334;5.622;2024-03-08T06:41:41;13.23;;;6.70;;
27622;SDS011;15041;45.334;5.622;2024-03-08T06:44:09;8.57;;;6.10;;
27622;SDS011;15041;45.334;5.622;2024-03-08T06:46:37;8.87;;;5.23;;
27622;SDS011;15041;45.334;5.622;2024-03-08T06:49:04;7.83;;;5.43;;
27622;SDS011;15041;45.334;5.622;2024-03-08T06:51:32;5.20;;;3.60;;
27622;SDS011;15041;45.334;5.622;2024-03-08T06:53:59;6.60;;;3.53;;
27622;SDS011;15041;45.334;5.622;2024-03-08T06:56:26;3.80;;;3.40;;
27622;SDS011;15041;45.334;5.622;2024-03-08T06:58:56;8.27;;;3.80;;
27622;SDS011;15041;45.334;5.622;2024-03-08T07:01:23;5.10;;;3.20;;
27622;SDS011;15041;45.334;5.622;2024-03-08T07:03:50;3.40;;;3.10;;
27622;SDS011;15041;45.334;5.622;2024-03-08T07:06:17;4.20;;;3.70;;
27622;SDS011;15041;45.334;5.622;2024-03-08T07:08:45;5.00;;;4.30;;
27622;SDS011;15041;45.334;5.622;2024-03-08T07:11:14;4.93;;;3.50;;
27622;SDS011;15041;45.334;5.622;2024-03-08T07:13:44;8.23;;;3.30;;
27622;SDS011;15041;45.334;5.622;2024-03-08T07:16:12;5.93;;;3.77;;
27622;SDS011;15041;45.334;5.622;2024-03-08T07:18:41;4.23;;;3.80;;
27622;SDS011;15041;45.334;5.622;2024-03-08T07:21:09;5.43;;;3.47;;
27622;SDS011;15041;45.334;5.622;2024-03-08T07:23:36;4.67;;;3.67;;
27622;SDS011;15041;45.334;5.622;2024-03-08T07:26:23;4.97;;;3.58;;
27622;SDS011;15041;45.334;5.622;2024-03-08T07:28:50;6.10;;;3.53;;
27622;SDS011;15041;45.334;5.622;2024-03-08T07:31:21;5.13;;;3.60;;
27622;SDS011;15041;45.334;5.622;2024-03-08T07:33:56;7.00;;;4.27;;
27622;SDS011;15041;45.334;5.622;2024-03-08T07:36:24;6.50;;;3.67;;
27622;SDS011;15041;45.334;5.622;2024-03-08T07:38:51;5.33;;;3.37;;
27622;SDS011;15041;45.334;5.622;2024-03-08T07:41:18;3.43;;;3.13;;
27622;SDS011;15041;45.334;5.622;2024-03-08T07:43:45;7.60;;;3.53;;
27622;SDS011;15041;45.334;5.622;2024-03-08T07:46:14;4.23;;;3.27;;
27622;SDS011;15041;45.334;5.622;2024-03-08T07:48:45;9.17;;;4.80;;
27622;SDS011;15041;45.334;5.622;2024-03-08T07:51:15;3.70;;;3.40;;
27622;SDS011;15041;45.334;5.622;2024-03-08T07:53:43;7.17;;;4.03;;
27622;SDS011;15041;45.334;5.622;2024-03-08T07:56:10;8.30;;;3.70;;
27622;SDS011;15041;45.334;5.622;2024-03-08T07:58:39;7.97;;;4.40;;
27622;SDS011;15041;45.334;5.622;2024-03-08T08:01:07;3.70;;;3.40;;
27622;SDS011;15041;45.334;5.622;2024-03-08T08:03:34;5.23;;;3.37;;
27622;SDS011;15041;45.334;5.622;2024-03-08T08:06:04;3.83;;;3.13;;
27622;SDS011;15041;45.334;5.622;2024-03-08T08:08:33;5.00;;;3.23;;
27622;SDS011;15041;45.334;5.622;2024-03-08T08:11:00;5.37;;;3.50;;
27622;SDS011;15041;45.334;5.622;2024-03-08T08:13:28;3.63;;;3.33;;
27622;SDS011;15041;45.334;5.622;2024-03-08T08:15:57;3.73;;;3.40;;
27622;SDS011;15041;45.334;5.622;2024-03-08T08:18:25;6.13;;;3.40;;
27622;SDS011;15041;45.334;5.622;2024-03-08T08:20:52;4.13;;;3.50;;
27622;SDS011;15041;45.334;5.622;2024-03-08T08:23:20;3.77;;;3.40;;
27622;SDS011;15041;45.334;5.622;2024-03-08T08:25:48;4.97;;;4.40;;
27622;SDS011;15041;45.334;5.622;2024-03-08T08:28:15;9.20;;;5.33;;
27622;SDS011;15041;45.334;5.622;2024-03-08T08:30:42;9.47;;;5.67;;
27622;SDS011;15041;45.334;5.622;2024-03-08T08:33:10;9.47;;;7.10;;
27622;SDS011;15041;45.334;5.622;2024-03-08T08:35:38;8.43;;;6.43;;
27622;SDS011;15041;45.334;5.622;2024-03-08T08:38:05;6.83;;;5.93;;
27622;SDS011;15041;45.334;5.622;2024-03-08T08:40:35;7.53;;;5.90;;
27622;SDS011;15041;45.334;5.622;2024-03-08T08:43:02;10.00;;;6.77;;
27622;SDS011;15041;45.334;5.622;2024-03-08T08:45:30;10.03;;;7.07;;
27622;SDS011;15041;45.334;5.622;2024-03-08T08:47:58;8.93;;;6.60;;
27622;SDS011;15041;45.334;5.622;2024-03-08T08:50:26;9.80;;;6.20;;
27622;SDS011;15041;45.334;5.622;2024-03-08T08:52:53;9.10;;;8.27;;
27622;SDS011;15041;45.334;5.622;2024-03-08T08:55:20;8.43;;;6.73;;
27622;SDS011;15041;45.334;5.622;2024-03-08T08:57:52;9.50;;;8.30;;
27622;SDS011;15041;45.334;5.622;2024-03-08T09:00:19;13.07;;;8.30;;
27622;SDS011;15041;45.334;5.622;2024-03-08T09:02:47;12.07;;;8.10;;
27622;SDS011;15041;45.334;5.622;2024-03-08T09:05:16;7.43;;;6.63;;
27622;SDS011;15041;45.334;5.622;2024-03-08T09:07:43;10.07;;;8.55;;
27622;SDS011;15041;45.334;5.622;2024-03-08T09:10:10;9.25;;;8.35;;
27622;SDS011;15041;45.334;5.622;2024-03-08T09:12:40;9.35;;;8.45;;
27622;SDS011;15041;45.334;5.622;2024-03-08T09:15:09;12.70;;;7.80;;
27622;SDS011;15041;45.334;5.622;2024-03-08T09:17:36;10.93;;;7.57;;
27622;SDS011;15041;45.334;5.622;2024-03-08T09:20:06;7.70;;;6.90;;
27622;SDS011;15041;45.334;5.622;2024-03-08T09:22:34;6.45;;;5.85;;
27622;SDS011;15041;45.334;5.622;2024-03-08T09:25:01;6.15;;;5.55;;
27622;SDS011;15041;45.334;5.622;2024-03-08T09:27:30;7.53;;;5.93;;
27622;SDS011;15041;45.334;5.622;2024-03-08T09:29:57;8.82;;;7.07;;
27622;SDS011;15041;45.334;5.622;2024-03-08T09:32:26;10.70;;;7.20;;
27622;SDS011;15041;45.334;5.622;2024-03-08T09:34:53;9.65;;;7.60;;
27622;SDS011;15041;45.334;5.622;2024-03-08T09:37:21;6.68;;;5.07;;
27622;SDS011;15041;45.334;5.622;2024-03-08T09:39:49;6.03;;;5.50;;
27622;SDS011;15041;45.334;5.622;2024-03-08T09:42:17;7.38;;;6.68;;
27622;SDS011;15041;45.334;5.622;2024-03-08T09:44:45;7.00;;;6.40;;
27622;SDS011;15041;45.334;5.622;2024-03-08T09:47:13;7.03;;;6.43;;
27622;SDS011;15041;45.334;5.622;2024-03-08T09:49:43;6.95;;;5.20;;
27622;SDS011;15041;45.334;5.622;2024-03-08T09:52:11;5.32;;;4.82;;
27622;SDS011;15041;45.334;5.622;2024-03-08T09:54:39;7.22;;;5.45;;
27622;SDS011;15041;45.334;5.622;2024-03-08T09:57:09;9.70;;;7.55;;
27622;SDS011;15041;45.334;5.622;2024-03-08T09:59:37;9.30;;;8.00;;
27622;SDS011;15041;45.334;5.622;2024-03-08T10:02:13;9.63;;;8.27;;
27622;SDS011;15041;45.334;5.622;2024-03-08T10:04:43;12.55;;;8.27;;
27622;SDS011;15041;45.334;5.622;2024-03-08T10:07:12;11.95;;;8.10;;
27622;SDS011;15041;45.334;5.622;2024-03-08T10:09:40;12.50;;;7.32;;
27622;SDS011;15041;45.334;5.622;2024-03-08T10:12:12;9.23;;;7.07;;
27622;SDS011;15041;45.334;5.622;2024-03-08T10:14:40;7.13;;;6.38;;
27622;SDS011;15041;45.334;5.622;2024-03-08T10:17:08;8.25;;;6.60;;
27622;SDS011;15041;45.334;5.622;2024-03-08T10:19:35;7.13;;;6.47;;
27622;SDS011;15041;45.334;5.622;2024-03-08T10:22:05;6.40;;;5.80;;
27622;SDS011;15041;45.334;5.622;2024-03-08T10:24:33;6.82;;;5.93;;
27622;SDS011;15041;45.334;5.622;2024-03-08T10:27:01;7.43;;;6.82;;
27622;SDS011;15041;45.334;5.622;2024-03-08T10:29:30;8.23;;;7.40;;
27622;SDS011;15041;45.334;5.622;2024-03-08T10:31:58;8.65;;;6.80;;
27622;SDS011;15041;45.334;5.622;2024-03-08T10:34:25;8.52;;;6.47;;
27622;SDS011;15041;45.334;5.622;2024-03-08T10:36:52;7.00;;;6.30;;
27622;SDS011;15041;45.334;5.622;2024-03-08T10:39:23;9.02;;;7.47;;
27622;SDS011;15041;45.334;5.622;2024-03-08T10:41:53;8.10;;;7.30;;
27622;SDS011;15041;45.334;5.622;2024-03-08T10:47:22;7.77;;;6.53;;
27622;SDS011;15041;45.334;5.622;2024-03-08T10:49:58;8.87;;;7.37;;
27622;SDS011;15041;45.334;5.622;2024-03-08T10:52:35;9.47;;;7.03;;
27622;SDS011;15041;45.334;5.622;2024-03-08T10:55:04;11.80;;;7.17;;
27622;SDS011;15041;45.334;5.622;2024-03-08T10:57:38;8.60;;;7.10;;
27622;SDS011;15041;45.334;5.622;2024-03-08T11:00:06;8.93;;;6.80;;
27622;SDS011;15041;45.334;5.622;2024-03-08T11:02:35;9.77;;;7.83;;
27622;SDS011;15041;45.334;5.622;2024-03-08T11:05:03;10.30;;;8.20;;
27622;SDS011;15041;45.334;5.622;2024-03-08T11:07:33;13.97;;;8.47;;
27622;SDS011;15041;45.334;5.622;2024-03-08T11:10:02;10.60;;;8.17;;
27622;SDS011;15041;45.334;5.622;2024-03-08T11:12:35;9.13;;;7.53;;
27622;SDS011;15041;45.334;5.622;2024-03-08T11:15:10;11.13;;;7.20;;
27622;SDS011;15041;45.334;5.622;2024-03-08T11:17:45;9.13;;;6.20;;
27622;SDS011;15041;45.334;5.622;2024-03-08T11:20:14;8.13;;;6.77;;
27622;SDS011;15041;45.334;5.622;2024-03-08T11:22:43;9.67;;;6.53;;
27622;SDS011;15041;45.334;5.622;2024-03-08T11:25:32;9.60;;;6.97;;
27622;SDS011;15041;45.334;5.622;2024-03-08T11:28:09;14.43;;;7.57;;
27622;SDS011;15041;45.334;5.622;2024-03-08T11:30:43;9.47;;;6.80;;
27622;SDS011;15041;45.334;5.622;2024-03-08T11:33:16;10.83;;;7.37;;
27622;SDS011;15041;45.334;5.622;2024-03-08T11:35:44;8.27;;;6.83;;
27622;SDS011;15041;45.334;5.622;2024-03-08T11:38:11;10.00;;;7.80;;
27622;SDS011;15041;45.334;5.622;2024-03-08T11:40:40;9.43;;;6.57;;
27622;SDS011;15041;45.334;5.622;2024-03-08T11:43:09;10.23;;;7.17;;
27622;SDS011;15041;45.334;5.622;2024-03-08T11:45:36;12.37;;;7.63;;
27622;SDS011;15041;45.334;5.622;2024-03-08T11:48:06;9.23;;;6.97;;
27622;SDS011;15041;45.334;5.622;2024-03-08T11:50:34;7.97;;;6.67;;
27622;SDS011;15041;45.334;5.622;2024-03-08T11:53:01;8.97;;;6.67;;
27622;SDS011;15041;45.334;5.622;2024-03-08T11:55:30;8.43;;;5.83;;
27622;SDS011;15041;45.334;5.622;2024-03-08T11:58:04;8.10;;;6.23;;
27622;SDS011;15041;45.334;5.622;2024-03-08T12:00:35;8.47;;;6.50;;
27622;SDS011;15041;45.334;5.622;2024-03-08T12:03:04;7.03;;;6.10;;
27622;SDS011;15041;45.334;5.622;2024-03-08T12:05:32;15.73;;;6.03;;
27622;SDS011;15041;45.334;5.622;2024-03-08T12:08:00;6.53;;;5.73;;
27622;SDS011;15041;45.334;5.622;2024-03-08T12:10:28;6.43;;;5.83;;
27622;SDS011;15041;45.334;5.622;2024-03-08T12:12:57;8.90;;;6.53;;
27622;SDS011;15041;45.334;5.622;2024-03-08T12:15:26;10.03;;;6.37;;
27622;SDS011;15041;45.334;5.622;2024-03-08T12:17:56;9.43;;;6.07;;
27622;SDS011;15041;45.334;5.622;2024-03-08T12:20:23;8.70;;;6.60;;
27622;SDS011;15041;45.334;5.622;2024-03-08T12:22:52;12.17;;;6.80;;
27622;SDS011;15041;45.334;5.622;2024-03-08T12:25:22;9.90;;;6.27;;
27622;SDS011;15041;45.334;5.622;2024-03-08T12:27:49;7.63;;;5.27;;
27622;SDS011;15041;45.334;5.622;2024-03-08T12:30:19;12.10;;;6.13;;
27622;SDS011;15041;45.334;5.622;2024-03-08T12:32:57;6.43;;;5.83;;
27622;SDS011;15041;45.334;5.622;2024-03-08T12:35:26;5.20;;;4.60;;
27622;SDS011;15041;45.334;5.622;2024-03-08T12:37:55;5.80;;;5.27;;
27622;SDS011;15041;45.334;5.622;2024-03-08T12:40:26;8.43;;;5.97;;
27622;SDS011;15041;45.334;5.622;2024-03-08T12:42:54;6.60;;;5.30;;
27622;SDS011;15041;45.334;5.622;2024-03-08T12:45:21;5.80;;;5.20;;
27622;SDS011;15041;45.334;5.622;2024-03-08T12:47:49;5.30;;;4.80;;
27622;SDS011;15041;45.334;5.622;2024-03-08T12:50:20;6.13;;;5.53;;
27622;SDS011;15041;45.334;5.622;2024-03-08T12:52:47;7.80;;;5.50;;
27622;SDS011;15041;45.334;5.622;2024-03-08T12:55:15;11.27;;;5.43;;
27622;SDS011;15041;45.334;5.622;2024-03-08T12:57:44;8.03;;;4.67;;
27622;SDS011;15041;45.334;5.622;2024-03-08T13:00:12;5.60;;;4.13;;
27622;SDS011;15041;45.334;5.622;2024-03-08T13:02:44;6.10;;;4.63;;
27622;SDS011;15041;45.334;5.622;2024-03-08T13:05:11;9.20;;;5.53;;
27622;SDS011;15041;45.334;5.622;2024-03-08T13:07:41;9.13;;;6.17;;
27622;SDS011;15041;45.334;5.622;2024-03-08T13:10:11;9.30;;;6.13;;
27622;SDS011;15041;45.334;5.622;2024-03-08T13:12:40;7.43;;;5.90;;
27622;SDS011;15041;45.334;5.622;2024-03-08T13:15:08;12.57;;;5.90;;
27622;SDS011;15041;45.334;5.622;2024-03-08T13:17:37;8.33;;;6.07;;
27622;SDS011;15041;45.334;5.622;2024-03-08T13:20:06;10.70;;;6.90;;
27622;SDS011;15041;45.334;5.622;2024-03-08T13:22:34;9.00;;;5.97;;
27622;SDS011;15041;45.334;5.622;2024-03-08T13:25:03;10.43;;;6.00;;
27622;SDS011;15041;45.334;5.622;2024-03-08T13:27:31;9.77;;;6.63;;
27622;SDS011;15041;45.334;5.622;2024-03-08T13:29:58;10.33;;;5.70;;
27622;SDS011;15041;45.334;5.622;2024-03-08T13:32:27;7.10;;;5.67;;
27622;SDS011;15041;45.334;5.622;2024-03-08T13:34:55;11.43;;;6.83;;
27622;SDS011;15041;45.334;5.622;2024-03-08T13:37:22;9.30;;;5.83;;
27622;SDS011;15041;45.334;5.622;2024-03-08T13:39:50;7.90;;;6.07;;
27622;SDS011;15041;45.334;5.622;2024-03-08T13:42:19;10.93;;;6.37;;
27622;SDS011;15041;45.334;5.622;2024-03-08T13:44:49;9.60;;;5.93;;
27622;SDS011;15041;45.334;5.622;2024-03-08T13:47:17;12.03;;;6.57;;
27622;SDS011;15041;45.334;5.622;2024-03-08T13:49:44;14.10;;;6.77;;
27622;SDS011;15041;45.334;5.622;2024-03-08T13:52:11;11.70;;;5.70;;
27622;SDS011;15041;45.334;5.622;2024-03-08T13:54:42;8.83;;;5.70;;
27622;SDS011;15041;45.334;5.622;2024-03-08T13:57:09;7.03;;;5.57;;
27622;SDS011;15041;45.334;5.622;2024-03-08T13:59:38;7.43;;;5.47;;
27622;SDS011;15041;45.334;5.622;2024-03-08T14:02:06;7.83;;;5.67;;
27622;SDS011;15041;45.334;5.622;2024-03-08T14:04:35;15.90;;;5.83;;
27622;SDS011;15041;45.334;5.622;2024-03-08T14:07:03;18.77;;;6.43;;
27622;SDS011;15041;45.334;5.622;2024-03-08T14:09:33;17.03;;;5.83;;
27622;SDS011;15041;45.334;5.622;2024-03-08T14:12:03;16.07;;;5.90;;
27622;SDS011;15041;45.334;5.622;2024-03-08T14:14:32;9.77;;;5.77;;
27622;SDS011;15041;45.334;5.622;2024-03-08T14:17:01;11.80;;;5.23;;
27622;SDS011;15041;45.334;5.622;2024-03-08T14:19:29;1.90;;;1.70;;
27622;SDS011;15041;45.334;5.622;2024-03-08T14:21:57;4.87;;;4.10;;
27622;SDS011;15041;45.334;5.622;2024-03-08T14:24:24;3.10;;;2.80;;
27622;SDS011;15041;45.334;5.622;2024-03-08T14:26:51;2.00;;;1.30;;
27622;SDS011;15041;45.334;5.622;2024-03-08T14:29:19;1.20;;;1.10;;
27622;SDS011;15041;45.334;5.622;2024-03-08T14:31:46;2.83;;;1.80;;
27622;SDS011;15041;45.334;5.622;2024-03-08T14:34:14;3.07;;;1.50;;
27622;SDS011;15041;45.334;5.622;2024-03-08T14:36:42;1.63;;;1.53;;
27622;SDS011;15041;45.334;5.622;2024-03-08T14:39:09;2.00;;;1.80;;
27622;SDS011;15041;45.334;5.622;2024-03-08T14:41:37;3.80;;;1.10;;
27622;SDS011;15041;45.334;5.622;2024-03-08T14:44:04;1.80;;;1.43;;
27622;SDS011;15041;45.334;5.622;2024-03-08T14:46:31;1.07;;;1.00;;
27622;SDS011;15041;45.334;5.622;2024-03-08T14:48:58;0.90;;;0.90;;
27622;SDS011;15041;45.334;5.622;2024-03-08T14:51:27;2.93;;;0.80;;
27622;SDS011;15041;45.334;5.622;2024-03-08T14:53:55;3.10;;;1.00;;
27622;SDS011;15041;45.334;5.622;2024-03-08T14:56:22;1.27;;;1.20;;
27622;SDS011;15041;45.334;5.622;2024-03-08T14:58:52;1.13;;;1.00;;